Keno, OR

2:12 AM PDT on September 20, 2014 (GMT -0700)
Beautiful Downtown | Change Station
CLOSE
Current Station
Personal Weather Station
Location: Keno, OR
Elevation: 4090 ft
Nearby Weather Stations

Elev 4090 ft 42.12 °N, 121.93 °W | Updated 5 hours ago

Clear
Clear
61.2 °F
Feels Like 61.2 °F
N
0.0
Wind Variable Wind from SE
Gusts 0.0 mph

Today
High -- | Low -- °F
--% Chance of Precip.
Yesterday
High -- | Low -- °F
Precip. -- in
6:53 AM 7:08 PM
Waning Crescent, 13% visible
Pressure 30.01 in
Visibility 10.0 miles
Clouds Clear
Dew Point 38.5 °F
Humidity 43%
Rainfall 0.00 in
Snow Depth Not available.
UV 0 out of 12
Pollen 4.20 out of 12
Air Quality Not available.
Flu Activity Not available.
METAR KLMT 200853Z AUTO 03004KT 10SM CLR 14/08 A3012 RMK AO2 SLP160 T01440078 51006

More Conditions Fewer Conditions

Pressure 30.01 in
Visibility 10.0 miles
Clouds Clear
Dew Point 38.5 °F
Humidity 43%
Rainfall 0.00 in
Snow Depth Not available.
UV 0 out of 12
Pollen 4.20 out of 12
Air Quality Not available.
Flu Activity Not available.
METAR KLMT 200853Z AUTO 03004KT 10SM CLR 14/08 A3012 RMK AO2 SLP160 T01440078 51006

More Conditions Fewer Conditions

10-Day Weather Forecast

Almanac

Astronomy

Sep. 20, 2014 Rise Set
Actual Time 6:53 AM PDT 7:08 PM PDT
Civil Twilight 6:25 AM PDT 7:36 PM PDT
Nautical Twilight 5:52 AM PDT 8:09 PM PDT
Astronomical Twilight 5:18 AM PDT 8:43 PM PDT
Moon 3:34 AM PDT 5:17 PM PDT
Length of Visible Light 13h 11m
Length of Day
12h 15m
Tomorrow will be 2m 48s shorter.
Waning Crescent, 13% of the Moon is Illuminated
Today
Waning Crescent
Sep 24
New
Oct 1
First Quarter
Oct 8
Full
Oct 15
Last Quarter

Today's Extremes

State Highs State Lows

Community

WunderPhotos

Upload Photos

1,754,794 photos uploaded!

WunderBlogs® & News

Nearby

Snow Depth

Station Depth Elevation
Lucky Strike 1 in 5050 ft
Clackamas Lake 0 in 3400 ft
Greenpoint 1 in 3200 ft
Fish Lake 0 in 4665 ft
Roaring River 0 in 4900 ft

Earthquake Activity

City Distance Mag. Time & Date
No recent earthquake activity has been reported nearby.
Minimum magnitude displayed is 2.5.

Coastal Water Temperatures

Place Temperature
No Stations Reporting

Nearby Weather Stations